Data for 09/02/2016

Time Sea-Level Adjusted Pressure Absolute Pressure Temperature Relative Humidity Dew Point   
(mb) (inHg) (mb) (inHg) (C) (F) (%) (C) (F)
00:05 1014 29.94 844 24.92 19.8 67.6 30 1.9 35.4
00:10 1015 29.97 844 24.92 19.7 67.5 32 2.8 37.1
00:15 1015 29.97 844 24.92 19.5 67.1 33 3.1 37.7
00:20 1015 29.97 844 24.92 19.2 66.5 35 3.4 38.1
00:25 1015 29.97 844 24.92 18.6 65.6 40 5 41
00:30 1015 29.97 844 24.92 18 64.3 42 4.8 40.7
00:35 1015 29.97 844 24.92 17.7 63.9 43 5.3 41.5
00:40 1015 29.97 844 24.92 17.2 63 45 5.2 41.4
00:45 1015 29.97 844 24.92 17 62.7 46 5.5 41.9
00:50 1015 29.97 845 24.95 16.9 62.4 46 5.4 41.8
00:55 1015 29.97 845 24.95 17 62.5 47 5.6 42
01:00 1016 30 845 24.95 16.9 62.4 46 5.4 41.8
01:05 1016 30 845 24.95 16.7 62.1 46 5.3 41.6
01:10 1016 30 845 24.95 16.7 62.1 47 5.4 41.7
01:15 1016 30 846 24.98 16.9 62.4 48 5.8 42.5
01:20 1016 30 846 24.98 16.9 62.4 48 5.9 42.6
01:25 1016 30 845 24.95 16.8 62.2 48 6 42.7
01:30 1016 30 845 24.95 16.6 61.9 48 5.7 42.3
01:35 1016 30 845 24.95 16.7 62 48 5.7 42.2
01:40 1016 30 845 24.95 16.5 61.6 51 6.3 43.4
01:45 1016 30 845 24.95 16 60.9 50 5.6 42.1
01:50 1016 30 845 24.95 16.3 61.3 48 5.5 41.8
01:55 1016 30 845 24.95 16.4 61.5 48 5.5 41.8
02:00 1016 30 845 24.95 16.4 61.5 48 5.3 41.6
02:05 1016 30 845 24.95 16.4 61.6 47 5.3 41.5
02:10 1016 30 845 24.95 16.5 61.7 47 5.2 41.3
02:15 1016 30 845 24.95 16.5 61.8 46 5.1 41.2
02:20 1016 30 845 24.95 16.4 61.5 45 4.5 40.1
02:25 1015 29.97 845 24.95 16.3 61.3 45 4.6 40.2
02:30 1015 29.97 844 24.92 16.4 61.4 44 4.3 39.7
02:35 1015 29.97 844 24.92 16.2 61.2 46 4.7 40.4
02:40 1015 29.97 844 24.92 16.1 60.9 46 4.4 40
02:45 1015 29.97 844 24.92 16 60.7 47 4.7 40.5
02:50 1015 29.97 844 24.92 15.7 60.3 47 4.7 40.4
02:55 1015 29.97 844 24.92 15.9 60.5 47 4.6 40.3
03:00 1015 29.97 844 24.92 15.6 60.1 47 4.5 40
03:05 1015 29.97 844 24.92 16 60.7 42 3.3 37.9
03:10 1015 29.97 844 24.92 16.9 62.4 40 3.4 38.2
03:15 1015 29.97 844 24.92 16.9 62.3 46 5.2 41.3
03:20 1015 29.97 844 24.92 15.2 59.4 49 4.7 40.5
03:25 1015 29.97 844 24.92 15.3 59.5 45 3.6 38.5
03:30 1015 29.97 844 24.92 15.8 60.4 47 4.6 40.4
03:35 1015 29.97 844 24.92 15.7 60.3 47 4.5 40.2
03:40 1014 29.94 844 24.92 16 60.9 45 4.2 39.6
03:45 1014 29.94 844 24.92 16.1 61 44 3.8 38.8
03:50 1014 29.94 844 24.92 16.6 62 42 4 39.1
03:55 1014 29.94 843 24.89 16.9 62.3 41 3.7 38.7
04:00 1014 29.94 843 24.89 17.1 62.7 41 3.8 38.8
04:05 1014 29.94 843 24.89 17.2 62.9 40 3.5 38.3
04:10 1014 29.94 843 24.89 17.2 63 40 3.6 38.5
04:15 1014 29.94 843 24.89 17.2 62.9 40 3.6 38.4
04:20 1014 29.94 843 24.89 17.2 63 39 3.3 37.9
04:25 1014 29.94 843 24.89 17.4 63.3 39 3.4 38.2
04:30 1014 29.94 843 24.89 17.3 63.1 39 3.4 38.1
04:35 1014 29.94 843 24.89 17.2 62.9 40 3.5 38.3
04:40 1014 29.94 843 24.89 17.1 62.8 40 3.5 38.3
04:45 1014 29.94 843 24.89 16.9 62.4 41 3.6 38.5
04:50 1014 29.94 843 24.89 16.7 62 41 3.4 38.2
04:55 1014 29.94 843 24.89 16.7 62.1 41 3.4 38.1
05:00 1014 29.94 843 24.89 16.7 62.1 40 3.2 37.7
05:05 1014 29.94 843 24.89 16.9 62.3 40 3.3 38
05:10 1014 29.94 843 24.89 16.8 62.2 40 3.1 37.6
05:15 1014 29.94 843 24.89 17 62.5 40 3.2 37.8
05:20 1014 29.94 843 24.89 16.9 62.4 39 3.1 37.7
05:25 1014 29.94 843 24.89 16.8 62.2 40 3.4 38.1
05:30 1014 29.94 843 24.89 16.6 61.8 41 3.5 38.3
05:35 1014 29.94 843 24.89 16.5 61.8 41 3.3 38
05:40 1014 29.94 843 24.89 16.6 61.9 40 3.2 37.8
05:45 1014 29.94 843 24.89 16.6 61.9 41 3.4 38.2
05:50 1014 29.94 843 24.89 16.5 61.8 41 3.3 38
05:55 1014 29.94 843 24.89 16.6 61.8 42 3.5 38.4
06:00 1014 29.94 843 24.89 16.3 61.4 42 3.5 38.3
06:05 1014 29.94 843 24.89 16.2 61.2 42 3.3 37.9
06:10 1014 29.94 843 24.89 16.3 61.3 43 3.7 38.6
06:15 1014 29.94 843 24.89 16.1 61 43 3.8 38.8
06:20 1014 29.94 843 24.89 16 60.9 44 3.9 39
06:25 1014 29.94 843 24.89 16.1 61 43 3.8 38.8
06:30 1014 29.94 843 24.89 16.2 61.2 42 3.5 38.3
06:35 1014 29.94 843 24.89 16.4 61.5 42 3.6 38.5
06:40 1014 29.94 843 24.89 16.4 61.4 45 4.5 40.2
06:45 1014 29.94 843 24.89 15.8 60.4 49 5.2 41.3
06:50 1014 29.94 843 24.89 15.3 59.5 47 4.1 39.5
06:55 1014 29.94 843 24.89 15.3 59.6 47 4.3 39.7
07:00 1014 29.94 843 24.89 15.2 59.4 47 4.1 39.4
07:05 1014 29.94 843 24.89 15.5 59.8 44 3.4 38.1
07:10 1014 29.94 843 24.89 15.7 60.3 45 3.9 39
07:15 1014 29.94 843 24.89 15.6 60.1 45 4 39.2
07:20 1014 29.94 843 24.89 15.7 60.2 44 3.7 38.6
07:25 1014 29.94 843 24.89 16 60.7 45 4 39.2
07:30 1014 29.94 843 24.89 16 60.9 43 3.5 38.3
07:35 1014 29.94 843 24.89 16.5 61.7 42 3.6 38.5
07:40 1014 29.94 843 24.89 16.5 61.7 42 3.7 38.6
07:45 1014 29.94 843 24.89 16.5 61.8 42 3.8 38.8
07:50 1014 29.94 843 24.89 16.7 62 43 4.3 39.7
07:55 1014 29.94 843 24.89 16.7 62 44 4.3 39.8
08:00 1014 29.94 843 24.89 17 62.7 41 4 39.1
08:05 1014 29.94 843 24.89 16.8 62.3 41 3.7 38.7
08:10 1014 29.94 843 24.89 17.3 63.1 42 4.2 39.6
08:15 1014 29.94 843 24.89 17.3 63.2 41 3.9 39
08:20 1014 29.94 843 24.89 17.7 63.8 41 4.4 40
08:25 1014 29.94 843 24.89 18.2 64.7 41 4.7 40.5
08:30 1014 29.94 843 24.89 18.7 65.6 39 4.4 40
08:35 1014 29.94 843 24.89 18.9 66.1 38 4.3 39.8
08:40 1014 29.94 843 24.89 19.5 67 37 4.7 40.4
08:45 1014 29.94 843 24.89 19.6 67.2 38 5.2 41.3
08:50 1014 29.94 843 24.89 19.5 67.2 37 4.6 40.2
08:55 1014 29.94 843 24.89 19.5 67.1 38 5.1 41.1
09:00 1014 29.94 843 24.89 19.6 67.4 35 3.7 38.7
09:05 1014 29.94 843 24.89 20 68 34 3.7 38.6
09:10 1014 29.94 843 24.89 20.5 68.9 34 4.2 39.6
09:15 1014 29.94 843 24.89 20 68 36 4.7 40.5
09:20 1014 29.94 843 24.89 19.8 67.6 35 4 39.2
09:25 1014 29.94 843 24.89 19.9 67.8 35 4.1 39.4
09:30 1014 29.94 843 24.89 20.7 69.3 32 3.7 38.7
09:35 1014 29.94 843 24.89 21.5 70.7 31 4.1 39.3
09:40 1014 29.94 843 24.89 21.3 70.3 33 4.6 40.3
09:45 1014 29.94 843 24.89 21.5 70.7 32 4.4 40
09:50 1014 29.94 843 24.89 21.1 70 33 4.6 40.2
09:55 1014 29.94 843 24.89 21.7 71.1 32 4.5 40.2
10:00 1014 29.94 843 24.89 21.8 71.2 32 4.4 39.9
10:05 1014 29.94 843 24.89 21.8 71.2 31 4.2 39.6
10:10 1014 29.94 843 24.89 22.4 72.3 31 4.4 40
10:15 1014 29.94 843 24.89 22.5 72.5 30 4.3 39.8
10:20 1014 29.94 843 24.89 22.7 72.8 30 4.3 39.8
10:25 1014 29.94 843 24.89 23.1 73.5 30 4.7 40.4
10:30 1014 29.94 843 24.89 23.1 73.5 30 4.7 40.4
10:35 1014 29.94 843 24.89 23.3 74 30 4.9 40.8
10:40 1014 29.94 843 24.89 22.9 73.3 31 4.9 40.8
10:45 1014 29.94 843 24.89 23 73.4 31 5 40.9
10:50 1014 29.94 843 24.89 23 73.5 29 4.3 39.8
10:55 1014 29.94 843 24.89 23.5 74.3 28 4.3 39.7
11:00 1014 29.94 843 24.89 23.9 75 28 4.4 39.9
11:05 1013 29.91 843 24.89 23.9 75 28 4.4 39.9
11:10 1014 29.94 843 24.89 23.8 74.8 28 4.4 40
11:15 1013 29.91 843 24.89 24.4 76 27 4.3 39.8
11:20 1013 29.91 843 24.89 24.1 75.3 27 4.1 39.5
11:25 1013 29.91 843 24.89 23.8 74.8 27 3.7 38.7
11:30 1013 29.91 843 24.89 24.5 76 26 4.1 39.4
11:35 1013 29.91 843 24.89 24.6 76.3 26 4 39.2
11:40 1013 29.91 843 24.89 24.7 76.5 26 4 39.1
11:45 1013 29.91 843 24.89 25 76.9 25 3.7 38.7
11:50 1013 29.91 842 24.86 25.3 77.5 24 3.5 38.4
11:55 1013 29.91 842 24.86 24.8 76.7 24 3.1 37.7
12:00 1013 29.91 842 24.86 25 77.1 24 3.3 37.9
12:05 1013 29.91 842 24.86 25.4 77.8 23 3.2 37.7
12:10 1013 29.91 842 24.86 25.2 77.4 25 3.9 39.1
12:15 1013 29.91 842 24.86 25.1 77.2 24 3.5 38.3
12:20 1013 29.91 842 24.86 25.7 78.2 23 3.1 37.5
12:25 1013 29.91 842 24.86 26.1 79 23 3.8 38.8
12:30 1013 29.91 842 24.86 25.6 78.1 23 3.3 38
12:35 1013 29.91 842 24.86 26.4 79.5 23 3.6 38.5
12:40 1013 29.91 842 24.86 26.7 80.1 22 3.6 38.4
12:45 1013 29.91 842 24.86 26.6 79.8 23 3.7 38.7
12:50 1013 29.91 842 24.86 26.6 79.9 23 4.3 39.7
12:55 1013 29.91 842 24.86 26.8 80.2 23 4 39.2
13:00 1012 29.88 842 24.86 26.5 79.6 23 3.7 38.7
13:05 1012 29.88 842 24.86 26.3 79.3 23 3.8 38.8
13:10 1012 29.88 842 24.86 26.3 79.3 25 4.7 40.5
13:15 1012 29.88 842 24.86 26.1 79 24 4.2 39.6
13:20 1012 29.88 842 24.86 25.3 77.6 25 4.4 39.9
13:25 1013 29.91 842 24.86 25.8 78.4 24 4.1 39.4
13:30 1013 29.91 842 24.86 25.9 78.5 23 3.7 38.6
13:35 1013 29.91 842 24.86 25.4 77.6 24 3.5 38.3
13:40 1013 29.91 842 24.86 25.5 77.9 22 2.7 36.8
13:45 1013 29.91 842 24.86 25.2 77.4 22 2.4 36.3
13:50 1013 29.91 842 24.86 25.1 77.2 23 3.1 37.5
13:55 1013 29.91 842 24.86 25.2 77.4 23 3.1 37.5
14:00 1013 29.91 842 24.86 25.1 77.2 24 3.5 38.3
14:05 1013 29.91 842 24.86 25 77.1 25 4.1 39.4
14:10 1013 29.91 842 24.86 24.6 76.3 25 3.3 37.9
14:15 1013 29.91 842 24.86 24.7 76.4 25 3.4 38.1
14:20 1013 29.91 842 24.86 24.7 76.5 24 3.2 37.8
14:25 1013 29.91 842 24.86 25 76.9 25 3.6 38.4
14:30 1013 29.91 842 24.86 24.9 76.8 24 3.3 38
14:35 1013 29.91 842 24.86 24.8 76.6 24 3.3 37.9
14:40 1013 29.91 842 24.86 24.8 76.6 19 -0.4 31.4
14:45 1013 29.91 842 24.86 25.1 77.1 18 -0.7 30.8
14:50 1013 29.91 842 24.86 25.1 77.1 20 0.9 33.6
14:55 1013 29.91 842 24.86 24.9 76.8 23 2.8 37
15:00 1013 29.91 842 24.86 24.5 76.1 24 3 37.3
15:05 1013 29.91 842 24.86 24.2 75.6 20 0.1 32.2
15:10 1013 29.91 842 24.86 24.2 75.6 22 1.5 34.8
15:15 1013 29.91 842 24.86 24.4 75.8 24 2.7 36.9
15:20 1013 29.91 842 24.86 24.2 75.6 25 2.9 37.3
15:25 1013 29.91 842 24.86 24.3 75.7 24 2.8 37.1
15:30 1013 29.91 842 24.86 24.4 75.8 24 2.7 36.9
15:35 1013 29.91 842 24.86 24.3 75.8 21 0.6 33.1
15:40 1013 29.91 842 24.86 24.4 75.9 22 1.5 34.8
15:45 1013 29.91 842 24.86 24.2 75.6 25 2.9 37.3
15:50 1013 29.91 842 24.86 23.8 74.9 26 3.2 37.7
15:55 1013 29.91 842 24.86 23.7 74.7 26 3.2 37.8
16:00 1013 29.91 842 24.86 23.6 74.4 25 2.7 36.9
16:05 1013 29.91 842 24.86 23.5 74.2 26 2.9 37.1
16:10 1013 29.91 842 24.86 23.5 74.2 25 2.4 36.3
16:15 1013 29.91 842 24.86 23.3 74 25 2.4 36.4
16:20 1013 29.91 842 24.86 23.2 73.8 25 2.5 36.5
16:25 1013 29.91 842 24.86 23.1 73.6 25 2.4 36.3
16:30 1013 29.91 842 24.86 23.2 73.8 25 2.4 36.4
16:35 1013 29.91 842 24.86 23.1 73.5 25 2.1 35.7
16:40 1013 29.91 842 24.86 23.1 73.6 25 2.2 36
16:45 1013 29.91 842 24.86 23.2 73.7 25 2 35.6
16:50 1013 29.91 842 24.86 23.3 73.9 24 1.8 35.3
16:55 1013 29.91 842 24.86 23.2 73.7 25 2.1 35.7
17:00 1013 29.91 842 24.86 23 73.3 25 2.2 35.9
17:05 1013 29.91 843 24.89 22.7 72.9 25 1.8 35.2
17:10 1013 29.91 843 24.89 22.7 72.8 26 2.2 35.9
17:15 1013 29.91 843 24.89 22.5 72.6 25 1.8 35.2
17:20 1014 29.94 843 24.89 22.5 72.5 25 2 35.6
17:25 1014 29.94 843 24.89 22.4 72.3 26 2.2 35.9
17:30 1014 29.94 843 24.89 22.2 72 27 2.4 36.3
17:35 1014 29.94 843 24.89 22.1 71.7 28 2.8 37
17:40 1013 29.91 843 24.89 22 71.6 27 2.5 36.5
17:45 1013 29.91 843 24.89 21.9 71.4 28 2.6 36.7
17:50 1014 29.94 843 24.89 22 71.5 27 2.4 36.3
17:55 1014 29.94 843 24.89 21.9 71.4 28 2.7 36.8
18:00 1014 29.94 843 24.89 21.8 71.3 29 3.2 37.7
18:05 1014 29.94 843 24.89 21.5 70.7 31 3.7 38.7
18:10 1014 29.94 843 24.89 21.2 70.1 33 4.3 39.8
18:15 1014 29.94 843 24.89 20.7 69.3 35 5.1 41.1
18:20 1014 29.94 843 24.89 20.5 68.8 35 4.8 40.7
18:25 1014 29.94 843 24.89 20.3 68.5 36 4.8 40.7
18:30 1014 29.94 843 24.89 20.2 68.4 34 4.2 39.6
18:35 1014 29.94 843 24.89 20.3 68.5 35 4.4 39.9
18:40 1014 29.94 843 24.89 20.1 68.1 36 4.7 40.5
18:45 1014 29.94 843 24.89 20 67.9 36 4.7 40.4
18:50 1014 29.94 844 24.92 19.8 67.6 37 5 41
18:55 1014 29.94 844 24.92 19.6 67.3 38 5 41
19:00 1015 29.97 844 24.92 19.5 67 35 3.6 38.5
19:05 1015 29.97 844 24.92 19.3 66.7 34 3 37.5
19:10 1015 29.97 844 24.92 18.9 66 35 3.1 37.6
19:15 1015 29.97 844 24.92 18.8 65.8 35 3.1 37.6
19:20 1015 29.97 844 24.92 18.5 65.4 36 3.2 37.7
19:25 1015 29.97 844 24.92 18.3 65 35 2.9 37.3
19:30 1015 29.97 844 24.92 18.2 64.7 37 3.2 37.8
19:35 1015 29.97 844 24.92 18 64.4 37 3.2 37.7
19:40 1015 29.97 844 24.92 17.8 64 38 3.3 37.9
19:45 1015 29.97 844 24.92 17.6 63.8 40 4.2 39.5
19:50 1015 29.97 844 24.92 17.6 63.6 38 3.3 38
19:55 1015 29.97 844 24.92 17.4 63.2 39 3.3 38
20:00 1015 29.97 845 24.95 17.2 62.9 41 3.9 39.1
20:05 1015 29.97 845 24.95 16.8 62.3 40 3.4 38.1
20:10 1016 30 845 24.95 16.8 62.2 40 3.2 37.8
20:15 1016 30 845 24.95 16.6 61.8 43 4 39.2
20:20 1016 30 845 24.95 16.3 61.4 42 3.5 38.2
20:25 1016 30 845 24.95 16.3 61.3 42 3.5 38.3
20:30 1016 30 845 24.95 16.2 61.2 42 3.3 37.9
20:35 1016 30 845 24.95 16.2 61.1 42 3.2 37.7
20:40 1016 30 845 24.95 16.1 61 41 3 37.4
20:45 1016 30 845 24.95 16.1 60.9 41 3.1 37.5
20:50 1017 30.03 846 24.98 16 60.7 42 3.1 37.6
20:55 1017 30.03 846 24.98 15.8 60.4 43 3.3 37.9
21:00 1017 30.03 846 24.98 15.7 60.2 44 3.4 38.2
21:05 1017 30.03 846 24.98 15.6 60 44 3.3 38
21:10 1017 30.03 846 24.98 15.3 59.6 44 3.3 37.9
21:15 1017 30.03 846 24.98 15.2 59.4 45 3.3 37.9
21:20 1017 30.03 846 24.98 15.1 59.3 44 3.1 37.6
21:25 1017 30.03 846 24.98 15.3 59.5 44 3.1 37.6
21:30 1017 30.03 846 24.98 15.3 59.5 44 3.2 37.8
21:35 1017 30.03 846 24.98 15.3 59.5 44 3.1 37.7
21:40 1017 30.03 847 25.01 15.3 59.5 44 3.1 37.6
21:45 1017 30.03 847 25.01 15.4 59.6 44 3.2 37.7
21:50 1017 30.03 846 24.98 15.4 59.7 44 3.2 37.8
21:55 1017 30.03 846 24.98 15.4 59.8 44 3.3 37.9
22:00 1017 30.03 846 24.98 15.4 59.8 44 3.2 37.8
22:05 1017 30.03 846 24.98 15.4 59.6 44 3.3 38
22:10 1017 30.03 846 24.98 15.4 59.6 45 3.6 38.5
22:15 1017 30.03 846 24.98 15.2 59.3 47 4 39.1
22:20 1017 30.03 846 24.98 14.9 58.9 47 3.9 38.9
22:25 1017 30.03 846 24.98 14.8 58.6 47 3.7 38.7
22:30 1017 30.03 846 24.98 14.8 58.6 46 3.4 38.1
22:35 1017 30.03 846 24.98 14.9 58.8 46 3.4 38.2
22:40 1017 30.03 846 24.98 14.8 58.7 48 4.1 39.4
22:45 1017 30.03 846 24.98 14.6 58.3 49 4 39.2
22:50 1017 30.03 846 24.98 14.6 58.2 49 4.1 39.4
22:55 1017 30.03 846 24.98 14.5 58 48 3.6 38.5
23:00 1017 30.03 846 24.98 14.6 58.3 48 3.7 38.7
23:05 1017 30.03 846 24.98 14.5 58.1 49 3.9 39.1
23:10 1017 30.03 846 24.98 14.2 57.6 50 3.9 39.1
23:15 1017 30.03 846 24.98 14 57.1 50 3.8 38.8
23:20 1017 30.03 846 24.98 13.9 57 50 3.8 38.8
23:25 1017 30.03 846 24.98 13.8 56.8 51 3.8 38.8
23:30 1017 30.03 846 24.98 13.7 56.6 52 3.9 39.1
23:35 1017 30.03 846 24.98 13.5 56.2 53 4 39.3
23:40 1017 30.03 846 24.98 13.3 56 53 3.9 39
23:45 1017 30.03 846 24.98 13.2 55.7 53 4 39.2
23:50 1017 30.03 846 24.98 13.3 55.9 52 3.8 38.8
23:55 1017 30.03 846 24.98 13.4 56 53 3.9 39.1
24:00 1017 30.03 846 24.98 13.3 55.9 53 3.9 39